sensor_id;sensor_type;location;lat;lon;timestamp;pressure;altitude;pressure_sealevel;temperature;humidity
1207;BME280;593;53.184;8.216;2023-08-08T00:01:44;100707.88;;;16.20;98.29
1207;BME280;593;53.184;8.216;2023-08-08T00:04:10;100699.16;;;16.18;98.37
1207;BME280;593;53.184;8.216;2023-08-08T00:06:36;100690.59;;;16.19;98.41
1207;BME280;593;53.184;8.216;2023-08-08T00:09:02;100681.53;;;16.19;98.95
1207;BME280;593;53.184;8.216;2023-08-08T00:11:29;100688.19;;;16.18;98.59
1207;BME280;593;53.184;8.216;2023-08-08T00:13:55;100669.41;;;16.11;98.73
1207;BME280;593;53.184;8.216;2023-08-08T00:16:20;100675.56;;;16.17;99.17
1207;BME280;593;53.184;8.216;2023-08-08T00:18:46;100681.06;;;16.17;98.93
1207;BME280;593;53.184;8.216;2023-08-08T00:21:11;100683.81;;;16.17;99.11
1207;BME280;593;53.184;8.216;2023-08-08T00:23:36;100674.75;;;16.16;99.57
1207;BME280;593;53.184;8.216;2023-08-08T00:26:02;100677.50;;;16.16;99.43
1207;BME280;593;53.184;8.216;2023-08-08T00:28:27;100672.34;;;16.15;99.52
1207;BME280;593;53.184;8.216;2023-08-08T00:30:52;100681.88;;;16.17;99.66
1207;BME280;593;53.184;8.216;2023-08-08T00:33:18;100665.75;;;16.16;99.79
1207;BME280;593;53.184;8.216;2023-08-08T00:35:43;100670.56;;;16.10;99.97
1207;BME280;593;53.184;8.216;2023-08-08T00:38:10;100680.91;;;16.13;100.00
1207;BME280;593;53.184;8.216;2023-08-08T00:40:35;100671.53;;;16.14;100.00
1207;BME280;593;53.184;8.216;2023-08-08T00:43:00;100669.13;;;16.13;100.00
1207;BME280;593;53.184;8.216;2023-08-08T00:45:26;100667.47;;;16.12;100.00
1207;BME280;593;53.184;8.216;2023-08-08T00:47:52;100662.81;;;16.12;100.00
1207;BME280;593;53.184;8.216;2023-08-08T00:50:17;100671.84;;;16.13;100.00
1207;BME280;593;53.184;8.216;2023-08-08T00:52:43;100673.31;;;16.10;100.00
1207;BME280;593;53.184;8.216;2023-08-08T00:55:09;100654.53;;;16.03;100.00
1207;BME280;593;53.184;8.216;2023-08-08T00:57:35;100667.00;;;16.10;100.00
1207;BME280;593;53.184;8.216;2023-08-08T01:00:05;100663.63;;;16.13;100.00
1207;BME280;593;53.184;8.216;2023-08-08T01:02:31;100662.00;;;16.12;100.00
1207;BME280;593;53.184;8.216;2023-08-08T01:04:56;100663.63;;;16.13;100.00
1207;BME280;593;53.184;8.216;2023-08-08T01:07:31;100658.44;;;16.11;100.00
1207;BME280;593;53.184;8.216;2023-08-08T01:10:06;100666.66;;;16.11;100.00
1207;BME280;593;53.184;8.216;2023-08-08T01:12:41;100667.81;;;16.10;100.00
1207;BME280;593;53.184;8.216;2023-08-08T01:15:07;100672.16;;;16.11;100.00
1207;BME280;593;53.184;8.216;2023-08-08T01:17:35;100667.81;;;16.10;100.00
1207;BME280;593;53.184;8.216;2023-08-08T01:20:03;100660.69;;;16.09;100.00
1207;BME280;593;53.184;8.216;2023-08-08T01:22:36;100654.09;;;16.10;100.00
1207;BME280;593;53.184;8.216;2023-08-08T01:25:04;100654.09;;;16.10;100.00
1207;BME280;593;53.184;8.216;2023-08-08T01:27:30;100657.31;;;16.12;100.00
1207;BME280;593;53.184;8.216;2023-08-08T01:29:55;100649.09;;;16.12;100.00
1207;BME280;593;53.184;8.216;2023-08-08T01:32:21;100641.00;;;16.07;100.00
1207;BME280;593;53.184;8.216;2023-08-08T01:34:47;100646.34;;;16.12;100.00
1207;BME280;593;53.184;8.216;2023-08-08T01:37:23;100637.31;;;16.12;100.00
1207;BME280;593;53.184;8.216;2023-08-08T01:39:50;100628.41;;;16.06;100.00
1207;BME280;593;53.184;8.216;2023-08-08T01:42:18;100634.56;;;16.12;100.00
1207;BME280;593;53.184;8.216;2023-08-08T01:44:44;100633.09;;;16.14;100.00
1207;BME280;593;53.184;8.216;2023-08-08T01:47:11;100644.09;;;16.14;100.00
1207;BME280;593;53.184;8.216;2023-08-08T01:49:36;100629.88;;;16.12;100.00
1207;BME280;593;53.184;8.216;2023-08-08T01:52:01;100630.06;;;16.16;100.00
1207;BME280;593;53.184;8.216;2023-08-08T01:54:27;100638.59;;;16.14;100.00
1207;BME280;593;53.184;8.216;2023-08-08T01:56:52;100634.75;;;16.15;100.00
1207;BME280;593;53.184;8.216;2023-08-08T01:59:17;100630.84;;;16.16;100.00
1207;BME280;593;53.184;8.216;2023-08-08T02:01:43;100625.34;;;16.16;100.00
1207;BME280;593;53.184;8.216;2023-08-08T02:04:08;100626.16;;;16.17;100.00
1207;BME280;593;53.184;8.216;2023-08-08T02:06:33;100623.44;;;16.17;100.00
1207;BME280;593;53.184;8.216;2023-08-08T02:08:59;100620.69;;;16.17;100.00
1207;BME280;593;53.184;8.216;2023-08-08T02:11:24;100629.72;;;16.17;100.00
1207;BME280;593;53.184;8.216;2023-08-08T02:13:49;100622.63;;;16.16;100.00
1207;BME280;593;53.184;8.216;2023-08-08T02:16:15;100621.00;;;16.15;100.00
1207;BME280;593;53.184;8.216;2023-08-08T02:18:40;100622.94;;;16.15;100.00
1207;BME280;593;53.184;8.216;2023-08-08T02:21:07;100616.66;;;16.14;100.00
1207;BME280;593;53.184;8.216;2023-08-08T02:23:33;100623.28;;;16.13;100.00
1207;BME280;593;53.184;8.216;2023-08-08T02:25:58;100610.66;;;16.12;100.00
1207;BME280;593;53.184;8.216;2023-08-08T02:28:24;100610.66;;;16.12;100.00
1207;BME280;593;53.184;8.216;2023-08-08T02:30:49;100604.69;;;16.10;100.00
1207;BME280;593;53.184;8.216;2023-08-08T02:33:14;100603.06;;;16.09;100.00
1207;BME280;593;53.184;8.216;2023-08-08T02:35:40;100595.47;;;16.06;100.00
1207;BME280;593;53.184;8.216;2023-08-08T02:38:05;100588.88;;;16.07;100.00
1207;BME280;593;53.184;8.216;2023-08-08T02:40:31;100600.66;;;16.08;100.00
1207;BME280;593;53.184;8.216;2023-08-08T02:42:57;100588.88;;;16.07;100.00
1207;BME280;593;53.184;8.216;2023-08-08T02:45:22;100582.09;;;16.04;100.00
1207;BME280;593;53.184;8.216;2023-08-08T02:47:48;100591.63;;;16.07;100.00
1207;BME280;593;53.184;8.216;2023-08-08T02:50:13;100591.13;;;16.05;100.00
1207;BME280;593;53.184;8.216;2023-08-08T02:52:39;100590.81;;;16.07;100.00
1207;BME280;593;53.184;8.216;2023-08-08T02:55:04;100582.91;;;16.05;100.00
1207;BME280;593;53.184;8.216;2023-08-08T02:57:30;100575.47;;;16.06;100.00
1207;BME280;593;53.184;8.216;2023-08-08T02:59:55;100571.94;;;16.05;100.00
1207;BME280;593;53.184;8.216;2023-08-08T03:02:21;100561.25;;;16.03;100.00
1207;BME280;593;53.184;8.216;2023-08-08T03:04:46;100553.19;;;15.98;100.00
1207;BME280;593;53.184;8.216;2023-08-08T03:07:11;100564.81;;;16.04;100.00
1207;BME280;593;53.184;8.216;2023-08-08T03:09:37;100560.47;;;16.03;100.00
1207;BME280;593;53.184;8.216;2023-08-08T03:12:02;100573.03;;;16.04;100.00
1207;BME280;593;53.184;8.216;2023-08-08T03:14:28;100564.81;;;16.04;100.00
1207;BME280;593;53.184;8.216;2023-08-08T03:16:53;100556.59;;;16.04;100.00
1207;BME280;593;53.184;8.216;2023-08-08T03:19:18;100559.81;;;16.06;100.00
1207;BME280;593;53.184;8.216;2023-08-08T03:21:44;100563.38;;;16.07;100.00
1207;BME280;593;53.184;8.216;2023-08-08T03:24:09;100560.63;;;16.07;100.00
1207;BME280;593;53.184;8.216;2023-08-08T03:26:34;100551.56;;;16.06;100.00
1207;BME280;593;53.184;8.216;2023-08-08T03:29:00;100556.44;;;16.09;100.00
1207;BME280;593;53.184;8.216;2023-08-08T03:31:25;100544.63;;;16.09;100.00
1207;BME280;593;53.184;8.216;2023-08-08T03:33:52;100542.88;;;16.04;100.00
1207;BME280;593;53.184;8.216;2023-08-08T03:36:17;100539.31;;;16.03;100.00
1207;BME280;593;53.184;8.216;2023-08-08T03:38:43;100534.63;;;16.04;100.00
1207;BME280;593;53.184;8.216;2023-08-08T03:41:12;100549.81;;;16.10;100.00
1207;BME280;593;53.184;8.216;2023-08-08T03:43:39;100544.34;;;16.10;100.00
1207;BME280;593;53.184;8.216;2023-08-08T03:46:04;100548.38;;;16.13;100.00
1207;BME280;593;53.184;8.216;2023-08-08T03:48:29;100544.81;;;16.12;100.00
1207;BME280;593;53.184;8.216;2023-08-08T03:50:55;100546.75;;;16.12;100.00
1207;BME280;593;53.184;8.216;2023-08-08T03:53:20;100546.75;;;16.12;100.00
1207;BME280;593;53.184;8.216;2023-08-08T03:55:45;100537.38;;;16.13;100.00
1207;BME280;593;53.184;8.216;2023-08-08T03:58:11;100546.09;;;16.15;100.00
1207;BME280;593;53.184;8.216;2023-08-08T04:00:36;100545.00;;;16.16;100.00
1207;BME280;593;53.184;8.216;2023-08-08T04:03:04;100543.84;;;16.17;100.00
1207;BME280;593;53.184;8.216;2023-08-08T04:05:30;100545.00;;;16.16;100.00
1207;BME280;593;53.184;8.216;2023-08-08T04:07:55;100549.66;;;16.15;100.00
1207;BME280;593;53.184;8.216;2023-08-08T04:10:20;100532.03;;;16.16;100.00
1207;BME280;593;53.184;8.216;2023-08-08T04:12:49;100525.09;;;16.19;100.00
1207;BME280;593;53.184;8.216;2023-08-08T04:15:14;100530.94;;;16.17;100.00
1207;BME280;593;53.184;8.216;2023-08-08T04:17:39;100529.81;;;16.18;100.00
1207;BME280;593;53.184;8.216;2023-08-08T04:20:05;100532.22;;;16.20;100.00
1207;BME280;593;53.184;8.216;2023-08-08T04:22:31;100532.56;;;16.18;100.00
1207;BME280;593;53.184;8.216;2023-08-08T04:24:57;100527.06;;;16.18;100.00
1207;BME280;593;53.184;8.216;2023-08-08T04:27:22;100522.88;;;16.21;100.00
1207;BME280;593;53.184;8.216;2023-08-08T04:29:47;100518.16;;;16.21;100.00
1207;BME280;593;53.184;8.216;2023-08-08T04:32:13;100528.38;;;16.21;100.00
1207;BME280;593;53.184;8.216;2023-08-08T04:34:38;100520.59;;;16.23;100.00
1207;BME280;593;53.184;8.216;2023-08-08T04:37:04;100528.66;;;16.19;100.00
1207;BME280;593;53.184;8.216;2023-08-08T04:39:29;100517.53;;;16.16;100.00
1207;BME280;593;53.184;8.216;2023-08-08T04:41:54;100531.09;;;16.21;100.00
1207;BME280;593;53.184;8.216;2023-08-08T04:44:20;100522.06;;;16.20;100.00
1207;BME280;593;53.184;8.216;2023-08-08T04:46:45;100521.41;;;16.23;100.00
1207;BME280;593;53.184;8.216;2023-08-08T04:49:10;100519.47;;;16.24;100.00
1207;BME280;593;53.184;8.216;2023-08-08T04:51:36;100525.75;;;16.24;100.00
1207;BME280;593;53.184;8.216;2023-08-08T04:54:01;100524.94;;;16.24;100.00
1207;BME280;593;53.184;8.216;2023-08-08T04:56:26;100525.75;;;16.24;100.00
1207;BME280;593;53.184;8.216;2023-08-08T04:58:53;100523.00;;;16.24;100.00
1207;BME280;593;53.184;8.216;2023-08-08T05:01:18;100518.66;;;16.23;100.00
1207;BME280;593;53.184;8.216;2023-08-08T05:03:45;100524.63;;;16.25;100.00
1207;BME280;593;53.184;8.216;2023-08-08T05:06:11;100512.69;;;16.21;100.00
1207;BME280;593;53.184;8.216;2023-08-08T05:08:36;100524.94;;;16.24;100.00
1207;BME280;593;53.184;8.216;2023-08-08T05:11:01;100525.13;;;16.27;100.00
1207;BME280;593;53.184;8.216;2023-08-08T05:13:27;100524.00;;;16.28;100.00
1207;BME280;593;53.184;8.216;2023-08-08T05:15:52;100525.59;;;16.29;100.00
1207;BME280;593;53.184;8.216;2023-08-08T05:18:17;100519.63;;;16.27;100.00
1207;BME280;593;53.184;8.216;2023-08-08T05:20:43;100518.19;;;16.30;100.00
1207;BME280;593;53.184;8.216;2023-08-08T05:23:08;100521.72;;;16.30;100.00
1207;BME280;593;53.184;8.216;2023-08-08T05:25:33;100522.84;;;16.29;100.00
1207;BME280;593;53.184;8.216;2023-08-08T05:27:59;100520.59;;;16.31;100.00
1207;BME280;593;53.184;8.216;2023-08-08T05:30:24;100511.22;;;16.32;100.00
1207;BME280;593;53.184;8.216;2023-08-08T05:32:49;100513.63;;;16.34;100.00
1207;BME280;593;53.184;8.216;2023-08-08T05:35:15;100506.22;;;16.34;100.00
1207;BME280;593;53.184;8.216;2023-08-08T05:37:41;100512.53;;;16.35;100.00
1207;BME280;593;53.184;8.216;2023-08-08T05:40:07;100515.25;;;16.35;100.00
1207;BME280;593;53.184;8.216;2023-08-08T05:42:32;100513.00;;;16.37;100.00
1207;BME280;593;53.184;8.216;2023-08-08T05:44:58;100514.28;;;16.39;100.00
1207;BME280;593;53.184;8.216;2023-08-08T05:47:23;100506.88;;;16.40;100.00
1207;BME280;593;53.184;8.216;2023-08-08T05:49:49;100502.97;;;16.41;100.00
1207;BME280;593;53.184;8.216;2023-08-08T05:52:14;100501.03;;;16.41;100.00
1207;BME280;593;53.184;8.216;2023-08-08T05:54:40;100495.53;;;16.41;100.00
1207;BME280;593;53.184;8.216;2023-08-08T05:57:05;100505.88;;;16.44;100.00
1207;BME280;593;53.184;8.216;2023-08-08T05:59:31;100487.13;;;16.46;100.00
1207;BME280;593;53.184;8.216;2023-08-08T06:02:00;100493.09;;;16.48;100.00
1207;BME280;593;53.184;8.216;2023-08-08T06:04:26;100488.63;;;16.52;100.00
1207;BME280;593;53.184;8.216;2023-08-08T06:06:51;100487.97;;;16.55;100.00
1207;BME280;593;53.184;8.216;2023-08-08T06:09:17;100496.03;;;16.60;100.00
1207;BME280;593;53.184;8.216;2023-08-08T06:11:42;100490.84;;;16.67;100.00
1207;BME280;593;53.184;8.216;2023-08-08T06:14:09;100492.44;;;16.68;100.00
1207;BME280;593;53.184;8.216;2023-08-08T06:16:34;100491.16;;;16.75;100.00
1207;BME280;593;53.184;8.216;2023-08-08T06:19:00;100498.75;;;16.78;100.00
1207;BME280;593;53.184;8.216;2023-08-08T06:21:25;100486.28;;;16.80;100.00
1207;BME280;593;53.184;8.216;2023-08-08T06:23:51;100497.09;;;16.85;100.00
1207;BME280;593;53.184;8.216;2023-08-08T06:26:19;100512.75;;;16.93;100.00
1207;BME280;593;53.184;8.216;2023-08-08T06:28:46;100502.06;;;17.00;100.00
1207;BME280;593;53.184;8.216;2023-08-08T06:31:12;100504.47;;;17.02;100.00
1207;BME280;593;53.184;8.216;2023-08-08T06:33:38;100518.81;;;17.16;100.00
1207;BME280;593;53.184;8.216;2023-08-08T06:36:03;100523.63;;;17.27;100.00
1207;BME280;593;53.184;8.216;2023-08-08T06:38:29;100523.91;;;17.35;100.00
1207;BME280;593;53.184;8.216;2023-08-08T06:40:59;100506.13;;;17.32;100.00
1207;BME280;593;53.184;8.216;2023-08-08T06:43:24;100516.56;;;17.47;100.00
1207;BME280;593;53.184;8.216;2023-08-08T06:45:50;100514.59;;;17.56;100.00
1207;BME280;593;53.184;8.216;2023-08-08T06:48:15;100508.88;;;17.61;100.00
1207;BME280;593;53.184;8.216;2023-08-08T06:50:40;100517.44;;;17.68;100.00
1207;BME280;593;53.184;8.216;2023-08-08T06:53:06;100504.16;;;17.70;100.00
1207;BME280;593;53.184;8.216;2023-08-08T06:55:31;100511.88;;;17.77;100.00
1207;BME280;593;53.184;8.216;2023-08-08T06:57:56;100508.31;;;17.76;100.00
1207;BME280;593;53.184;8.216;2023-08-08T07:00:22;100504.91;;;17.79;100.00
1207;BME280;593;53.184;8.216;2023-08-08T07:02:47;100508.25;;;17.85;100.00
1207;BME280;593;53.184;8.216;2023-08-08T07:05:13;100510.34;;;17.88;100.00
1207;BME280;593;53.184;8.216;2023-08-08T07:07:38;100514.38;;;17.90;100.00
1207;BME280;593;53.184;8.216;2023-08-08T07:10:04;100510.16;;;17.93;100.00
1207;BME280;593;53.184;8.216;2023-08-08T07:12:30;100506.75;;;17.96;100.00
1207;BME280;593;53.184;8.216;2023-08-08T07:14:55;100506.75;;;17.96;100.00
1207;BME280;593;53.184;8.216;2023-08-08T07:17:21;100512.34;;;18.00;100.00
1207;BME280;593;53.184;8.216;2023-08-08T07:19:46;100511.22;;;18.01;100.00
1207;BME280;593;53.184;8.216;2023-08-08T07:22:12;100508.47;;;18.01;100.00
1207;BME280;593;53.184;8.216;2023-08-08T07:24:37;100517.19;;;18.03;100.00
1207;BME280;593;53.184;8.216;2023-08-08T07:27:04;100510.56;;;18.04;100.00
1207;BME280;593;53.184;8.216;2023-08-08T07:29:29;100500.22;;;18.01;100.00
1207;BME280;593;53.184;8.216;2023-08-08T07:31:55;100503.91;;;18.05;100.00
1207;BME280;593;53.184;8.216;2023-08-08T07:34:20;100492.06;;;18.04;100.00
1207;BME280;593;53.184;8.216;2023-08-08T07:36:47;100490.81;;;18.02;100.00
1207;BME280;593;53.184;8.216;2023-08-08T07:39:13;100495.63;;;18.05;100.00
1207;BME280;593;53.184;8.216;2023-08-08T07:41:38;100481.88;;;18.05;100.00
1207;BME280;593;53.184;8.216;2023-08-08T07:44:04;100489.81;;;18.06;100.00
1207;BME280;593;53.184;8.216;2023-08-08T07:46:30;100480.41;;;18.07;100.00
1207;BME280;593;53.184;8.216;2023-08-08T07:48:55;100485.09;;;18.07;100.00
1207;BME280;593;53.184;8.216;2023-08-08T07:51:24;100483.63;;;18.09;100.00
1207;BME280;593;53.184;8.216;2023-08-08T07:53:49;100478.09;;;18.09;100.00
1207;BME280;593;53.184;8.216;2023-08-08T07:56:15;100488.81;;;18.11;100.00
1207;BME280;593;53.184;8.216;2023-08-08T07:58:40;100480.19;;;18.12;100.00
1207;BME280;593;53.184;8.216;2023-08-08T08:01:06;100481.81;;;18.13;100.00
1207;BME280;593;53.184;8.216;2023-08-08T08:03:31;100478.25;;;18.13;100.00
1207;BME280;593;53.184;8.216;2023-08-08T08:05:56;100478.38;;;18.16;100.00
1207;BME280;593;53.184;8.216;2023-08-08T08:08:22;100467.16;;;18.21;100.00
1207;BME280;593;53.184;8.216;2023-08-08T08:10:48;100459.91;;;18.17;100.00
1207;BME280;593;53.184;8.216;2023-08-08T08:13:14;100455.13;;;18.26;100.00
1207;BME280;593;53.184;8.216;2023-08-08T08:15:39;100466.50;;;18.36;100.00
1207;BME280;593;53.184;8.216;2023-08-08T08:18:05;100463.56;;;18.41;100.00
1207;BME280;593;53.184;8.216;2023-08-08T08:20:30;100465.31;;;18.46;100.00
1207;BME280;593;53.184;8.216;2023-08-08T08:22:56;100454.44;;;18.49;100.00
1207;BME280;593;53.184;8.216;2023-08-08T08:25:21;100463.28;;;18.55;99.12
1207;BME280;593;53.184;8.216;2023-08-08T08:27:46;100460.31;;;18.60;98.57
1207;BME280;593;53.184;8.216;2023-08-08T08:30:12;100461.22;;;18.64;98.13
1207;BME280;593;53.184;8.216;2023-08-08T08:32:39;100458.25;;;18.69;97.06
1207;BME280;593;53.184;8.216;2023-08-08T08:35:06;100454.38;;;18.70;96.44
1207;BME280;593;53.184;8.216;2023-08-08T08:37:32;100459.19;;;18.73;95.41
1207;BME280;593;53.184;8.216;2023-08-08T08:39:58;100457.81;;;18.79;94.18
1207;BME280;593;53.184;8.216;2023-08-08T08:42:23;100461.53;;;18.83;92.61
1207;BME280;593;53.184;8.216;2023-08-08T08:44:49;100463.59;;;18.86;91.72
1207;BME280;593;53.184;8.216;2023-08-08T08:47:17;100447.63;;;18.92;90.48
1207;BME280;593;53.184;8.216;2023-08-08T08:49:45;100447.28;;;18.93;90.41
1207;BME280;593;53.184;8.216;2023-08-08T08:52:11;100454.84;;;18.96;89.15
1207;BME280;593;53.184;8.216;2023-08-08T08:54:37;100445.91;;;18.99;88.91
1207;BME280;593;53.184;8.216;2023-08-08T08:57:03;100463.38;;;19.03;88.83
1207;BME280;593;53.184;8.216;2023-08-08T08:59:29;100445.34;;;19.06;87.76
1207;BME280;593;53.184;8.216;2023-08-08T09:01:56;100450.06;;;19.05;86.71
1207;BME280;593;53.184;8.216;2023-08-08T09:04:21;100449.69;;;19.07;86.02
1207;BME280;593;53.184;8.216;2023-08-08T09:06:48;100449.81;;;19.10;86.12
1207;BME280;593;53.184;8.216;2023-08-08T09:09:15;100441.09;;;19.08;85.93
1207;BME280;593;53.184;8.216;2023-08-08T09:11:52;100446.84;;;19.15;85.45
1207;BME280;593;53.184;8.216;2023-08-08T09:14:22;100438.19;;;19.17;84.95
1207;BME280;593;53.184;8.216;2023-08-08T09:16:49;100437.88;;;19.18;84.85
1207;BME280;593;53.184;8.216;2023-08-08T09:19:15;100426.25;;;19.25;85.87
1207;BME280;593;53.184;8.216;2023-08-08T09:21:42;100430.28;;;19.28;86.42
1207;BME280;593;53.184;8.216;2023-08-08T09:24:08;100435.91;;;19.31;85.75
1207;BME280;593;53.184;8.216;2023-08-08T09:26:34;100431.91;;;19.29;85.71
1207;BME280;593;53.184;8.216;2023-08-08T09:29:03;100429.91;;;19.29;86.26
1207;BME280;593;53.184;8.216;2023-08-08T09:31:29;100438.94;;;19.38;86.34
1207;BME280;593;53.184;8.216;2023-08-08T09:33:58;100432.00;;;19.32;86.71
1207;BME280;593;53.184;8.216;2023-08-08T09:36:25;100446.97;;;19.43;87.05
1207;BME280;593;53.184;8.216;2023-08-08T09:38:52;100435.56;;;19.45;87.54
1207;BME280;593;53.184;8.216;2023-08-08T09:41:19;100447.06;;;19.47;87.70
1207;BME280;593;53.184;8.216;2023-08-08T09:43:45;100442.81;;;19.49;86.03
1207;BME280;593;53.184;8.216;2023-08-08T09:46:10;100443.59;;;19.50;85.24
1207;BME280;593;53.184;8.216;2023-08-08T09:48:38;100439.03;;;19.54;84.76
1207;BME280;593;53.184;8.216;2023-08-08T09:51:06;100437.75;;;19.63;84.97
1207;BME280;593;53.184;8.216;2023-08-08T09:53:31;100439.81;;;19.66;84.61
1207;BME280;593;53.184;8.216;2023-08-08T09:55:57;100431.53;;;19.66;84.16
1207;BME280;593;53.184;8.216;2023-08-08T09:58:23;100436.88;;;19.75;83.53
1207;BME280;593;53.184;8.216;2023-08-08T10:00:49;100446.06;;;19.79;83.24
1207;BME280;593;53.184;8.216;2023-08-08T10:03:18;100450.09;;;19.81;81.13
1207;BME280;593;53.184;8.216;2023-08-08T10:05:47;100440.22;;;19.80;80.22
1207;BME280;593;53.184;8.216;2023-08-08T10:08:16;100431.56;;;19.82;80.54
1207;BME280;593;53.184;8.216;2023-08-08T10:10:44;100428.13;;;19.85;80.15
1207;BME280;593;53.184;8.216;2023-08-08T10:13:18;100433.03;;;19.92;80.33
1207;BME280;593;53.184;8.216;2023-08-08T10:15:44;100429.31;;;20.00;80.54
1207;BME280;593;53.184;8.216;2023-08-08T10:18:09;100440.50;;;20.03;79.82
1207;BME280;593;53.184;8.216;2023-08-08T10:20:37;100452.44;;;20.07;79.11
1207;BME280;593;53.184;8.216;2023-08-08T10:23:03;100455.63;;;20.09;79.47
1207;BME280;593;53.184;8.216;2023-08-08T10:25:30;100443.56;;;20.14;79.39
1207;BME280;593;53.184;8.216;2023-08-08T10:28:04;100447.56;;;20.16;79.26
1207;BME280;593;53.184;8.216;2023-08-08T10:30:42;100431.00;;;20.16;79.04
1207;BME280;593;53.184;8.216;2023-08-08T10:33:18;100445.97;;;20.15;79.35
1207;BME280;593;53.184;8.216;2023-08-08T10:38:23;100438.81;;;20.26;79.35
1207;BME280;593;53.184;8.216;2023-08-08T10:40:55;100439.25;;;20.28;79.17
1207;BME280;593;53.184;8.216;2023-08-08T10:43:28;100445.22;;;20.30;79.31
1207;BME280;593;53.184;8.216;2023-08-08T10:45:58;100447.44;;;20.25;79.97
1207;BME280;593;53.184;8.216;2023-08-08T10:48:25;100488.75;;;20.33;81.05
1207;BME280;593;53.184;8.216;2023-08-08T10:50:54;100489.56;;;20.34;82.52
1207;BME280;593;53.184;8.216;2023-08-08T10:53:22;100496.34;;;20.36;84.73
1207;BME280;593;53.184;8.216;2023-08-08T10:55:57;100473.75;;;20.34;86.84
1207;BME280;593;53.184;8.216;2023-08-08T10:58:35;100462.16;;;20.29;87.72
1207;BME280;593;53.184;8.216;2023-08-08T11:01:01;100462.88;;;20.26;88.38
1207;BME280;593;53.184;8.216;2023-08-08T11:03:27;100457.19;;;20.22;89.05
1207;BME280;593;53.184;8.216;2023-08-08T11:05:54;100454.34;;;20.19;89.88
1207;BME280;593;53.184;8.216;2023-08-08T11:08:21;100453.09;;;20.16;90.71
1207;BME280;593;53.184;8.216;2023-08-08T11:10:51;100457.38;;;20.14;91.98
1207;BME280;593;53.184;8.216;2023-08-08T11:13:20;100440.25;;;20.08;93.15
1207;BME280;593;53.184;8.216;2023-08-08T11:15:46;100453.59;;;20.06;94.20
1207;BME280;593;53.184;8.216;2023-08-08T11:18:11;100445.91;;;20.00;94.84
1207;BME280;593;53.184;8.216;2023-08-08T11:20:37;100473.50;;;20.00;95.93
1207;BME280;593;53.184;8.216;2023-08-08T11:23:04;100473.44;;;19.96;96.66
1207;BME280;593;53.184;8.216;2023-08-08T11:25:35;100489.44;;;19.91;97.03
1207;BME280;593;53.184;8.216;2023-08-08T11:28:01;100480.13;;;19.83;97.42
1207;BME280;593;53.184;8.216;2023-08-08T11:30:34;100482.06;;;19.82;97.65
1207;BME280;593;53.184;8.216;2023-08-08T11:33:00;100467.25;;;19.75;97.66
1207;BME280;593;53.184;8.216;2023-08-08T11:35:26;100463.16;;;19.69;97.59
1207;BME280;593;53.184;8.216;2023-08-08T11:37:53;100473.81;;;19.70;97.99
1207;BME280;593;53.184;8.216;2023-08-08T11:40:20;100470.94;;;19.67;97.74
1207;BME280;593;53.184;8.216;2023-08-08T11:42:46;100466.47;;;19.62;97.79
1207;BME280;593;53.184;8.216;2023-08-08T11:45:12;100478.19;;;19.59;98.36
1207;BME280;593;53.184;8.216;2023-08-08T11:47:39;100473.72;;;19.55;98.78
1207;BME280;593;53.184;8.216;2023-08-08T11:50:06;100476.16;;;19.56;99.62
1207;BME280;593;53.184;8.216;2023-08-08T11:52:35;100479.25;;;19.55;99.94
1207;BME280;593;53.184;8.216;2023-08-08T11:55:01;100471.31;;;19.53;100.00
1207;BME280;593;53.184;8.216;2023-08-08T11:57:27;100465.00;;;19.53;100.00
1207;BME280;593;53.184;8.216;2023-08-08T11:59:53;100468.91;;;19.52;100.00
1207;BME280;593;53.184;8.216;2023-08-08T12:02:18;100460.97;;;19.50;100.00
1207;BME280;593;53.184;8.216;2023-08-08T12:04:47;100455.47;;;19.50;100.00
1207;BME280;593;53.184;8.216;2023-08-08T12:07:12;100460.97;;;19.50;100.00
1207;BME280;593;53.184;8.216;2023-08-08T12:09:39;100453.50;;;19.51;100.00
1207;BME280;593;53.184;8.216;2023-08-08T12:12:05;100454.78;;;19.53;100.00
1207;BME280;593;53.184;8.216;2023-08-08T12:14:42;100461.56;;;19.56;100.00
1207;BME280;593;53.184;8.216;2023-08-08T12:17:08;100459.25;;;19.58;100.00
1207;BME280;593;53.184;8.216;2023-08-08T12:19:34;100454.63;;;19.62;100.00
1207;BME280;593;53.184;8.216;2023-08-08T12:21:59;100450.03;;;19.66;100.00
1207;BME280;593;53.184;8.216;2023-08-08T12:24:25;100449.69;;;19.67;100.00
1207;BME280;593;53.184;8.216;2023-08-08T12:26:50;100451.75;;;19.70;100.00
1207;BME280;593;53.184;8.216;2023-08-08T12:29:15;100442.66;;;19.70;100.00
1207;BME280;593;53.184;8.216;2023-08-08T12:31:41;100448.19;;;19.70;100.00
1207;BME280;593;53.184;8.216;2023-08-08T12:34:06;100444.72;;;19.73;100.00
1207;BME280;593;53.184;8.216;2023-08-08T12:36:32;100446.78;;;19.76;100.00
1207;BME280;593;53.184;8.216;2023-08-08T12:38:57;100448.50;;;19.80;100.00
1207;BME280;593;53.184;8.216;2023-08-08T12:41:23;100446.56;;;19.81;100.00
1207;BME280;593;53.184;8.216;2023-08-08T12:43:52;100443.19;;;19.88;100.00
1207;BME280;593;53.184;8.216;2023-08-08T12:46:18;100439.81;;;19.94;100.00
1207;BME280;593;53.184;8.216;2023-08-08T12:48:43;100449.72;;;19.95;100.00
1207;BME280;593;53.184;8.216;2023-08-08T12:51:09;100443.59;;;20.02;100.00
1207;BME280;593;53.184;8.216;2023-08-08T12:53:35;100440.94;;;20.05;100.00
1207;BME280;593;53.184;8.216;2023-08-08T12:56:00;100451.63;;;20.07;100.00
1207;BME280;593;53.184;8.216;2023-08-08T12:58:26;100445.31;;;20.06;100.00
1207;BME280;593;53.184;8.216;2023-08-08T13:00:51;100458.25;;;20.18;100.00
1207;BME280;593;53.184;8.216;2023-08-08T13:03:16;100455.94;;;20.20;100.00
1207;BME280;593;53.184;8.216;2023-08-08T13:05:42;100465.50;;;20.22;98.46
1207;BME280;593;53.184;8.216;2023-08-08T13:08:07;100464.69;;;20.22;98.16
1207;BME280;593;53.184;8.216;2023-08-08T13:10:33;100456.97;;;20.27;97.37
1207;BME280;593;53.184;8.216;2023-08-08T13:12:58;100467.34;;;20.30;97.71